Nearby METAR* Reports

*"METAR [Météorologique Aviation Régulière] is the international standard code format for hourly surface weather observations which is analogous to the SA coding currently used in the US. The acronym roughly translates from French as Aviation Routine Weather Report." (Source: http://gosic.org/wdcmet/us-metar-faq-taf)

 

KTEB - Teterboro, New Jersey, USA
Distance from station: ENE 2mi, 3km
Updated: 06/01/2020 7:51am
Clear
Clear
 Wind from N
Wind: N 9 mph , 15 km/h
Temperature: 55°F , 13°C
Dew Point: 36°F , 2°C
Humidity: 47%
Barometer: 30.25 inHg , 1024.4 hPa
Clouds: Clear
Visibility: 10 miles , 16 km
2020/06/01 11:51 KTEB 011151Z 35008KT 10SM CLR 13/02 A3025 RMK AO2 SLP243 T01280022 10133 20083 51017
KNYC - Nyc/Central Park, New York, USA
Distance from station: SE 8mi, 13km
Updated: 06/01/2020 7:51am
Clear
Clear
 
Temperature: 54°F , 12°C
Dew Point: 36°F , 2°C
Humidity: 51%
Barometer: 30.28 inHg , 1025.4 hPa
Clouds: Clear
Visibility: 10 miles , 16 km
2020/06/01 11:51 KNYC 011151Z AUTO 10SM CLR 12/02 A3028 RMK AO2 SLP244 T01220017 10128 20106 51016 $
KCDW - Caldwell, New Jersey, USA
Distance from station: W 11mi, 17km
Updated: 06/01/2020 7:53am
Clear
Clear
 Wind from varies
Wind: varies 5 mph , 7 km/h
Temperature: 55°F , 13°C
Dew Point: 36°F , 2°C
Humidity: 47%
Barometer: 30.27 inHg , 1025.1 hPa
Clouds: Clear
Visibility: 10 miles , 16 km
2020/06/01 11:53 KCDW 011153Z AUTO VRB04KT 10SM CLR 13/02 A3027 RMK AO2 SLP255 T01280017 10128 20072 51017
 
KLGA - Nyc/La Guardia, New York, USA
Distance from station: ESE 12mi, 19km
Updated: 06/01/2020 7:51am
Few Clouds
Few Clouds
 Wind from NNW
Wind: NNW 8 mph , 13 km/h
Temperature: 55°F , 13°C
Dew Point: 36°F , 2°C
Humidity: 47%
Barometer: 30.26 inHg , 1024.7 hPa
Clouds: Few Clouds
Visibility: 10 miles , 16 km
Cloud details: Few Clouds 25000 ft
2020/06/01 11:51 KLGA 011151Z 33007KT 10SM FEW250 13/02 A3026 RMK AO2 SLP246 T01330017 10139 20122 53020
KEWR - Newark, New Jersey, USA
Distance from station: SSW 13mi, 20km
Updated: 06/01/2020 7:51am
Few Clouds
Few Clouds
 Wind from NW
Wind: NW 15 mph , 24 km/h
Temperature: 57°F , 14°C
Dew Point: 34°F , 1°C
Humidity: 41%
Barometer: 30.26 inHg , 1024.7 hPa
Clouds: Few Clouds
Visibility: 10 miles , 16 km
Cloud details: Few Clouds 25000 ft
2020/06/01 11:51 KEWR 011151Z 31013KT 10SM FEW250 14/01 A3026 RMK AO2 SLP246 T01390011 10139 20106 51016 $
KMMU - Morristown Muni, New Jersey, USA
Distance from station: WSW 18mi, 29km
Updated: 06/01/2020 7:58am
Partly cloudy
Partly cloudy
 Wind from NNE
Wind: NNE 5 mph , 7 km/h
Temperature: 54°F , 12°C
Dew Point: 39°F , 4°C
Humidity: 58%
Barometer: 30.27 inHg , 1025.1 hPa
Clouds: Partly cloudy
Visibility: 10 miles , 16 km
Cloud details: Partly cloudy 25000 ft
2020/06/01 11:58 KMMU 011158Z 02004KT 10SM SCT250 12/04 A3027
 
KLDJ - Linden, New Jersey, USA
Distance from station: SSW 19mi, 30km
Updated: 06/01/2020 7:55am
Clear
Clear
 Wind from NNW
Wind: NNW 10 mph , 17 km/h
Temperature: 55°F , 13°C
Dew Point: 34°F , 1°C
Humidity: 44%
Barometer: 30.27 inHg , 1025.1 hPa
Clouds: Clear
Visibility: 10 miles , 16 km
2020/06/01 11:55 KLDJ 011155Z AUTO 33009KT 10SM CLR 13/01 A3027 RMK AO2 T01310011 10131 20097
KJFK - Nyc/Jfk Arpt, New York, USA
Distance from station: SE 23mi, 36km
Updated: 06/01/2020 7:51am
Few Clouds
Few Clouds
 Wind from NW
Wind: NW 12 mph , 19 km/h
Temperature: 57°F , 14°C
Dew Point: 36°F , 2°C
Humidity: 44%
Barometer: 30.26 inHg , 1024.7 hPa
Clouds: Few Clouds
Visibility: 10 miles , 16 km
Cloud details: Few Clouds 25000 ft
2020/06/01 11:51 KJFK 011151Z 32010KT 10SM FEW250 14/02 A3026 RMK AO2 SLP247 T01390017 10139 20106 51018
KHPN - White Plains, New York, USA
Distance from station: NE 25mi, 40km
Updated: 06/01/2020 7:56am
Clear
Clear
 Wind from NNW
Wind: NNW 9 mph , 15 km/h
Temperature: 54°F , 12°C
Dew Point: 36°F , 2°C
Humidity: 51%
Barometer: 30.24 inHg , 1024 hPa
Clouds: Clear
Visibility: 10 miles , 16 km
2020/06/01 11:56 KHPN 011156Z 33008KT 10SM CLR 12/02 A3024 RMK AO2 SLP241 T01170022 10117 20056 51019
 
KSMQ - Somerville, New Jersey, USA
Distance from station: WSW 35mi, 56km
Updated: 06/01/2020 7:53am
Clear
Clear
 Wind from calm
Wind: Calm
Temperature: 54°F , 12°C
Dew Point: 39°F , 4°C
Humidity: 58%
Barometer: 30.26 inHg , 1024.7 hPa
Clouds: Clear
Visibility: 10 miles , 16 km
2020/06/01 11:53 KSMQ 011153Z AUTO 00000KT 10SM CLR 12/04 A3026 RMK AO2 SLP248 T01220039 10122 20044 51015
K12N - Andover, New Jersey, USA
Distance from station: WNW 36mi, 57km
Updated: 06/01/2020 7:54am

 Wind from WNW
Wind: WNW 3 mph , 6 km/h
Temperature: 54°F , 12°C
Dew Point: 39°F , 4°C
Humidity: 58%
Barometer: 30.27 inHg , 1025.1 hPa
2020/06/01 11:54 K12N 011154Z AUTO 29003KT 12/04 A3027 RMK AO1 SLP250 T01170044 10117 20044 53016
KFRG - Farmingdale, New York, USA
Distance from station: ESE 36mi, 58km
Updated: 06/01/2020 7:53am
Clear
Clear
 Wind from NNW
Wind: NNW 10 mph , 17 km/h
Temperature: 57°F , 14°C
Dew Point: 37°F , 3°C
Humidity: 48%
Barometer: 30.25 inHg , 1024.4 hPa
Clouds: Clear
Visibility: 10 miles , 16 km
2020/06/01 11:53 KFRG 011153Z 33009KT 10SM CLR 14/03 A3025 RMK AO2 SLP241 T01440028 10144 20094 51016 $
 
KFWN - Sussex, New Jersey, USA
Distance from station: NW 37mi, 60km
Updated: 06/01/2020 7:53am
Partly cloudy
Partly cloudy
 Wind from varies
Wind: varies 3 mph , 6 km/h
Temperature: 54°F , 12°C
Dew Point: 37°F , 3°C
Humidity: 54%
Barometer: 30.27 inHg , 1025.1 hPa
Clouds: Partly cloudy
Visibility: 10 miles , 16 km
Cloud details: Partly cloudy 11000 ft
2020/06/01 11:53 KFWN 011153Z AUTO VRB03KT 10SM SCT110 12/03 A3027 RMK AO2 SLP249 T01170028 10117 20033 53017 $
KSWF - Newburgh/Stewart, New York, USA
Distance from station: 0 44mi, 72km
Updated: 06/01/2020 7:45am
Clear
Clear
 Wind from W
Wind: W 6 mph , 9 km/h
Temperature: 48°F , 9°C
Wind Chill: 45°F , 7°C
Dew Point: 39°F , 4°C
Humidity: 71%
Barometer: 30.25 inHg , 1024.4 hPa
Clouds: Clear
Visibility: 10 miles , 16 km
2020/06/01 11:45 KSWF 011145Z 27005KT 10SM SKC 09/04 A3025
KMGJ - Montgomery, New York, USA
Distance from station: NNW 47mi, 75km
Updated: 06/01/2020 7:54am
Partly cloudy
Partly cloudy
 Wind from W
Wind: W 6 mph , 9 km/h
Temperature: 52°F , 11°C
Dew Point: 37°F , 3°C
Humidity: 58%
Barometer: 30.25 inHg , 1024.4 hPa
Clouds: Partly cloudy
Visibility: 10 miles , 16 km
Cloud details: Few Clouds 9000 ft
Partly cloudy 11000 ft
2020/06/01 11:54 KMGJ 011154Z AUTO 27005KT 10SM FEW090 SCT110 11/03 A3025 RMK AO2 SLP243 T01110033 10111 20033 51014
 
KDXR - Danbury, Connecticut, USA
Distance from station: NE 47mi, 76km
Updated: 06/01/2020 7:53am
Clear
Clear
 Wind from varies
Wind: varies 3 mph , 6 km/h
Temperature: 52°F , 11°C
Dew Point: 37°F , 3°C
Humidity: 58%
Barometer: 30.25 inHg , 1024.4 hPa
Clouds: Clear
Visibility: 10 miles , 16 km
2020/06/01 11:53 KDXR 011153Z VRB03KT 10SM CLR 11/03 A3025 RMK AO2 SLP243 T01060028 10106 20028 51018
KBLM - Belmar/Farmdale, New Jersey, USA
Distance from station: S 48mi, 77km
Updated: 06/01/2020 7:56am
Clear
Clear
 Wind from NW
Wind: NW 12 mph , 19 km/h
Temperature: 55°F , 13°C
Dew Point: 36°F , 2°C
Humidity: 47%
Barometer: 30.28 inHg , 1025.4 hPa
Clouds: Clear
Visibility: 10 miles , 16 km
2020/06/01 11:56 KBLM 011156Z AUTO 32010KT 10SM CLR 13/02 A3028 RMK AO2 SLP254 T01330022 10133 20072 51018